Time;durP1;ratioP1;P1;durP2;ratioP2;P2;SDS_P1;SDS_P2;PMS_P1;PMS_P2;Temp;Humidity;BMP_temperature;BMP_pressure;BME280_temperature;BME280_humidity;BME280_pressure;Samples;Min_cycle;Max_cycle;Signal;HPM_P1;HPM_P2
2021/07/30 00:02:04;;;;;;;4.95;2.75;;;16.00;92.30;;;;;;5048211;28;20016;-73
2021/07/30 00:04:29;;;;;;;4.38;2.67;;;16.00;92.90;;;;;;5043011;28;20029;-74
2021/07/30 00:06:54;;;;;;;5.18;2.70;;;16.00;93.50;;;;;;5042728;28;20442;-73
2021/07/30 00:09:20;;;;;;;4.65;2.70;;;15.90;94.40;;;;;;5045767;28;20029;-74
2021/07/30 00:11:45;;;;;;;5.93;2.75;;;15.90;94.60;;;;;;5039826;28;20044;-73
2021/07/30 00:14:11;;;;;;;3.42;2.72;;;15.90;94.00;;;;;;5045592;28;20056;-73
2021/07/30 00:16:37;;;;;;;4.63;2.78;;;15.80;94.40;;;;;;5032320;28;20022;-74
2021/07/30 00:19:02;;;;;;;3.22;2.85;;;15.80;95.00;;;;;;5043677;28;20464;-73
2021/07/30 00:21:28;;;;;;;3.35;2.47;;;15.80;95.60;;;;;;5034535;28;20103;-74
2021/07/30 00:23:53;;;;;;;7.25;2.75;;;15.80;95.80;;;;;;5047357;28;20033;-74
2021/07/30 00:26:19;;;;;;;6.00;2.83;;;15.70;95.00;;;;;;5049422;28;20043;-73
2021/07/30 00:28:44;;;;;;;3.83;2.90;;;15.70;95.80;;;;;;5045338;28;20047;-74
2021/07/30 00:31:10;;;;;;;7.95;2.78;;;15.60;96.20;;;;;;5040925;28;20430;-74
2021/07/30 00:33:36;;;;;;;2.88;2.58;;;15.60;96.40;;;;;;5049502;28;20021;-73
2021/07/30 00:36:01;;;;;;;5.20;2.90;;;15.60;97.40;;;;;;5047403;28;20376;-73
2021/07/30 00:38:27;;;;;;;6.05;3.00;;;15.60;96.40;;;;;;5040167;28;20475;-74
2021/07/30 00:40:52;;;;;;;5.13;2.53;;;15.50;97.70;;;;;;5036667;28;20029;-73
2021/07/30 00:43:18;;;;;;;5.60;2.88;;;15.50;97.00;;;;;;5049737;28;20029;-73
2021/07/30 00:45:44;;;;;;;5.05;3.05;;;15.50;98.80;;;;;;5042312;28;20048;-73
2021/07/30 00:48:11;;;;;;;9.32;3.17;;;15.50;98.30;;;;;;5049452;28;20029;-74
2021/07/30 00:50:38;;;;;;;4.40;2.80;;;15.40;98.60;;;;;;5039318;28;20038;-74
2021/07/30 00:53:04;;;;;;;8.43;3.30;;;15.40;97.80;;;;;;5049536;28;20369;-73
2021/07/30 00:55:29;;;;;;;3.05;2.67;;;15.40;99.00;;;;;;5050122;28;20079;-74
2021/07/30 00:57:55;;;;;;;7.35;2.67;;;15.40;98.90;;;;;;5046638;28;20039;-74
2021/07/30 01:00:21;;;;;;;4.68;2.70;;;15.30;99.20;;;;;;5041711;28;20041;-73
2021/07/30 01:02:47;;;;;;;3.85;2.80;;;15.30;99.30;;;;;;5039423;28;20084;-73
2021/07/30 01:05:13;;;;;;;3.90;2.75;;;15.30;99.90;;;;;;5040304;28;20048;-73
2021/07/30 01:07:39;;;;;;;4.03;2.97;;;15.20;99.90;;;;;;5048580;28;20025;-73
2021/07/30 01:10:06;;;;;;;6.32;2.50;;;15.20;99.90;;;;;;5049878;28;20036;-74
2021/07/30 01:12:31;;;;;;;5.45;2.97;;;15.10;99.90;;;;;;5048013;28;20021;-73
2021/07/30 01:14:57;;;;;;;5.65;3.03;;;15.10;99.90;;;;;;5049815;28;20021;-73
2021/07/30 01:17:25;;;;;;;6.38;2.80;;;15.00;99.90;;;;;;5039836;28;20464;-73
2021/07/30 01:19:53;;;;;;;3.40;2.78;;;15.10;99.80;;;;;;5033255;28;20118;-74
2021/07/30 01:22:34;;;;;;;2.72;2.40;;;15.10;99.90;;;;;;5047896;28;20387;-74
2021/07/30 01:25:00;;;;;;;7.60;2.95;;;15.00;99.90;;;;;;5049548;28;20061;-73
2021/07/30 01:27:26;;;;;;;4.40;3.00;;;15.00;99.90;;;;;;5048248;28;20056;-74
2021/07/30 01:29:51;;;;;;;7.28;3.05;;;15.00;99.90;;;;;;5047858;28;20029;-73
2021/07/30 01:32:17;;;;;;;3.05;2.63;;;14.90;99.90;;;;;;5044648;28;20025;-74
2021/07/30 01:34:43;;;;;;;5.35;3.13;;;14.90;99.90;;;;;;5043668;28;20021;-73
2021/07/30 01:37:11;;;;;;;4.85;2.85;;;14.90;99.90;;;;;;5045495;28;20024;-74
2021/07/30 01:39:37;;;;;;;5.07;3.00;;;14.90;99.90;;;;;;5043478;28;20032;-74
2021/07/30 01:42:03;;;;;;;6.72;2.92;;;14.90;99.90;;;;;;5038837;28;20025;-74
2021/07/30 01:44:29;;;;;;;5.20;3.10;;;14.80;99.90;;;;;;5041343;28;20032;-74
2021/07/30 01:46:54;;;;;;;3.80;2.70;;;14.80;99.90;;;;;;5037421;28;20094;-73
2021/07/30 01:49:20;;;;;;;6.45;3.00;;;14.80;99.90;;;;;;5046054;28;20017;-74
2021/07/30 01:51:46;;;;;;;8.05;3.17;;;14.80;99.90;;;;;;5046331;28;20506;-73
2021/07/30 01:54:14;;;;;;;7.93;3.30;;;14.70;99.90;;;;;;5038389;28;20479;-74
2021/07/30 01:56:40;;;;;;;4.47;3.13;;;14.70;99.90;;;;;;5044469;28;20041;-73
2021/07/30 01:59:15;;;;;;;3.50;2.90;;;14.60;99.90;;;;;;5049741;28;20043;-74
2021/07/30 02:01:40;;;;;;;4.82;3.42;;;14.60;99.90;;;;;;5045338;28;20036;-73
2021/07/30 02:04:06;;;;;;;5.53;2.65;;;14.60;99.90;;;;;;5043843;28;20487;-74
2021/07/30 02:06:31;;;;;;;6.72;3.38;;;14.60;99.90;;;;;;5047406;28;20525;-73
2021/07/30 02:09:00;;;;;;;9.05;3.28;;;14.60;99.90;;;;;;5049182;28;20033;-74
2021/07/30 02:11:26;;;;;;;5.95;3.17;;;14.60;99.90;;;;;;5042931;28;20123;-73
2021/07/30 02:16:35;;;;;;;5.35;2.90;;;14.50;99.90;;;;;;5039326;28;20052;-74
2021/07/30 02:19:01;;;;;;;5.13;2.78;;;14.50;99.90;;;;;;5047489;28;20474;-73
2021/07/30 02:21:26;;;;;;;11.18;3.10;;;14.50;99.90;;;;;;5041160;28;20021;-74
2021/07/30 02:23:52;;;;;;;4.75;3.13;;;14.50;99.90;;;;;;5042190;28;20043;-73
2021/07/30 02:26:17;;;;;;;16.75;3.42;;;14.50;99.90;;;;;;5042601;28;20033;-74
2021/07/30 02:28:43;;;;;;;5.47;2.90;;;14.50;99.90;;;;;;5034959;28;20035;-74
2021/07/30 02:31:08;;;;;;;7.20;2.60;;;14.50;99.90;;;;;;5045135;28;20421;-74
2021/07/30 02:33:34;;;;;;;4.65;2.85;;;14.50;99.90;;;;;;5049145;28;20034;-74
2021/07/30 02:35:59;;;;;;;3.38;2.47;;;14.50;99.90;;;;;;5039301;28;20052;-74
2021/07/30 02:38:25;;;;;;;7.05;2.55;;;14.50;99.90;;;;;;5035374;28;20127;-74
2021/07/30 02:40:50;;;;;;;4.03;2.65;;;14.50;99.90;;;;;;5036017;28;20082;-74
2021/07/30 02:43:16;;;;;;;6.10;2.88;;;14.50;99.90;;;;;;5044860;28;20021;-74
2021/07/30 02:45:41;;;;;;;3.47;2.50;;;14.60;99.90;;;;;;5038935;28;20156;-73
2021/07/30 02:48:07;;;;;;;5.60;2.80;;;14.60;99.90;;;;;;5039872;28;20487;-74
2021/07/30 02:50:32;;;;;;;7.18;2.50;;;14.70;99.90;;;;;;5045678;28;20025;-73
2021/07/30 02:52:57;;;;;;;5.20;3.00;;;14.70;99.90;;;;;;5046660;28;20068;-74
2021/07/30 02:55:23;;;;;;;5.82;2.58;;;14.70;99.90;;;;;;5042562;28;20496;-74
2021/07/30 02:57:48;;;;;;;8.40;2.78;;;14.80;99.90;;;;;;5039293;28;20033;-74
2021/07/30 03:00:14;;;;;;;4.43;2.20;;;14.80;99.20;;;;;;5039782;28;20033;-74
2021/07/30 03:02:40;;;;;;;5.43;2.80;;;14.90;98.30;;;;;;5035495;28;20720;-74
2021/07/30 03:05:06;;;;;;;5.07;2.20;;;15.00;96.60;;;;;;5038521;28;20407;-73
2021/07/30 03:07:31;;;;;;;7.20;2.58;;;15.10;96.50;;;;;;5044551;28;20029;-74
2021/07/30 03:09:57;;;;;;;7.30;2.20;;;15.20;96.50;;;;;;5031876;28;20514;-74
2021/07/30 03:12:22;;;;;;;5.97;2.65;;;15.30;95.00;;;;;;5040230;28;20029;-74
2021/07/30 03:14:48;;;;;;;3.65;2.60;;;15.30;97.50;;;;;;5045837;28;20049;-74
2021/07/30 03:17:13;;;;;;;4.25;2.72;;;15.30;96.00;;;;;;5043092;28;20361;-74
2021/07/30 03:19:39;;;;;;;9.77;2.67;;;15.30;94.80;;;;;;5041093;28;20033;-74
2021/07/30 03:22:05;;;;;;;5.60;2.30;;;15.40;94.80;;;;;;5035670;28;20052;-73
2021/07/30 03:24:30;;;;;;;2.88;2.20;;;15.40;96.00;;;;;;5040091;28;20487;-73
2021/07/30 03:26:55;;;;;;;4.60;2.17;;;15.50;94.90;;;;;;5042895;28;20087;-74
2021/07/30 03:29:21;;;;;;;9.73;2.80;;;15.50;93.70;;;;;;5038560;28;20039;-74
2021/07/30 03:31:48;;;;;;;2.80;2.13;;;15.60;94.70;;;;;;5045342;28;20033;-74
2021/07/30 03:34:17;;;;;;;5.68;2.33;;;15.60;94.40;;;;;;5043242;28;20025;-74
2021/07/30 03:36:43;;;;;;;6.47;2.42;;;15.60;93.90;;;;;;5041372;28;20479;-74
2021/07/30 03:39:09;;;;;;;6.00;2.60;;;15.60;93.40;;;;;;5051692;28;20387;-74
2021/07/30 03:41:36;;;;;;;3.78;2.85;;;15.60;94.80;;;;;;5050665;28;20131;-74
2021/07/30 03:44:02;;;;;;;5.15;2.78;;;15.60;95.90;;;;;;5051868;28;20479;-74
2021/07/30 03:46:27;;;;;;;3.78;2.45;;;15.60;94.90;;;;;;5043582;28;20037;-73
2021/07/30 03:48:52;;;;;;;6.00;2.30;;;15.60;93.60;;;;;;5052692;28;20079;-73
2021/07/30 03:51:18;;;;;;;4.15;2.50;;;15.60;94.00;;;;;;5046500;28;20033;-74
2021/07/30 03:53:43;;;;;;;4.88;2.33;;;15.60;95.90;;;;;;5045791;28;20525;-74
2021/07/30 03:56:13;;;;;;;3.90;2.55;;;15.60;94.50;;;;;;5050636;28;20214;-74
2021/07/30 03:58:46;;;;;;;4.43;2.40;;;15.60;94.90;;;;;;5048286;28;20033;-74
2021/07/30 04:01:11;;;;;;;3.63;2.38;;;15.60;95.40;;;;;;5038298;28;20021;-74
2021/07/30 04:03:38;;;;;;;13.45;2.83;;;15.50;98.60;;;;;;5045449;28;20040;-74
2021/07/30 04:06:04;;;;;;;4.07;2.47;;;15.40;97.00;;;;;;5049003;28;20045;-74
2021/07/30 04:08:32;;;;;;;4.30;2.63;;;15.40;98.10;;;;;;5044150;28;20175;-74
2021/07/30 04:10:59;;;;;;;3.33;2.50;;;15.40;98.10;;;;;;5051822;28;20441;-73
2021/07/30 04:13:24;;;;;;;5.88;2.50;;;15.40;97.20;;;;;;5053626;28;20033;-74
2021/07/30 04:15:52;;;;;;;4.82;2.85;;;15.40;97.80;;;;;;5049422;28;20028;-73
2021/07/30 04:18:22;;;;;;;4.00;2.40;;;15.30;99.20;;;;;;5053180;28;20049;-74
2021/07/30 04:20:47;;;;;;;4.03;2.70;;;15.30;97.00;;;;;;5052890;28;20033;-73
2021/07/30 04:23:13;;;;;;;8.77;2.40;;;15.30;99.90;;;;;;5044740;28;20108;-74
2021/07/30 04:25:40;;;;;;;5.78;2.78;;;15.20;99.90;;;;;;5047803;28;20043;-74
2021/07/30 04:28:06;;;;;;;5.20;2.83;;;15.20;99.90;;;;;;5037792;28;20052;-73
2021/07/30 04:30:31;;;;;;;4.45;2.67;;;15.20;99.90;;;;;;5053352;28;20422;-74
2021/07/30 04:32:56;;;;;;;4.82;3.05;;;15.20;99.90;;;;;;5052256;28;20037;-74
2021/07/30 04:35:22;;;;;;;4.85;2.67;;;15.20;99.90;;;;;;5053358;28;20029;-74
2021/07/30 04:37:47;;;;;;;3.72;2.70;;;15.20;99.90;;;;;;5044825;28;20091;-74
2021/07/30 04:40:13;;;;;;;4.25;2.85;;;15.20;99.90;;;;;;5050999;28;20025;-74
2021/07/30 04:42:38;;;;;;;7.03;2.65;;;15.20;99.90;;;;;;5054828;28;20036;-74
2021/07/30 04:45:04;;;;;;;5.10;2.60;;;15.20;99.90;;;;;;5044839;28;20082;-74
2021/07/30 04:47:30;;;;;;;4.22;2.55;;;15.20;99.90;;;;;;5046932;28;20108;-74
2021/07/30 04:49:55;;;;;;;6.45;2.42;;;15.20;98.60;;;;;;5049549;28;20711;-74
2021/07/30 04:52:21;;;;;;;5.00;2.30;;;15.40;97.50;;;;;;5043565;28;20435;-75
2021/07/30 04:54:46;;;;;;;4.75;2.45;;;15.40;97.70;;;;;;5050402;28;20047;-75
2021/07/30 04:57:14;;;;;;;5.82;2.25;;;15.60;97.20;;;;;;5049979;28;20033;-75
2021/07/30 04:59:40;;;;;;;8.90;2.92;;;15.60;96.10;;;;;;5041189;28;20112;-75
2021/07/30 05:02:09;;;;;;;8.20;2.38;;;15.70;95.50;;;;;;5033840;28;20129;-74
2021/07/30 05:04:37;;;;;;;6.95;3.10;;;15.80;95.20;;;;;;5049117;28;20029;-74
2021/07/30 05:07:04;;;;;;;5.53;2.53;;;15.90;95.10;;;;;;5040761;28;20298;-74
2021/07/30 05:09:29;;;;;;;3.63;2.42;;;15.90;95.00;;;;;;5049172;28;20048;-74
2021/07/30 05:11:55;;;;;;;4.70;2.50;;;16.00;94.60;;;;;;5047169;28;20030;-74
2021/07/30 05:14:20;;;;;;;4.85;2.38;;;16.00;94.40;;;;;;5039270;28;20031;-74
2021/07/30 05:16:46;;;;;;;5.00;2.40;;;16.10;93.90;;;;;;5046419;28;20017;-73
2021/07/30 05:19:11;;;;;;;6.32;2.50;;;16.10;94.10;;;;;;5049001;28;20029;-74
2021/07/30 05:21:39;;;;;;;4.43;2.00;;;16.20;94.40;;;;;;5038682;28;20021;-72
2021/07/30 05:24:05;;;;;;;3.78;3.13;;;16.20;94.10;;;;;;5050289;28;20471;-73
2021/07/30 05:26:30;;;;;;;4.25;2.25;;;16.30;94.20;;;;;;5040160;28;20036;-74
2021/07/30 05:28:56;;;;;;;8.32;2.35;;;16.30;94.00;;;;;;5041089;28;20479;-72
2021/07/30 05:31:22;;;;;;;6.60;2.60;;;16.30;93.70;;;;;;5047099;28;20079;-74
2021/07/30 05:33:48;;;;;;;5.43;2.83;;;16.40;93.40;;;;;;5036594;28;20064;-74
2021/07/30 05:36:15;;;;;;;8.07;2.70;;;16.40;93.60;;;;;;5035143;28;20669;-74
2021/07/30 05:38:41;;;;;;;5.32;2.30;;;16.50;92.70;;;;;;5038706;28;20115;-74
2021/07/30 05:41:11;;;;;;;4.47;2.35;;;16.60;93.20;;;;;;5032931;28;20520;-75
2021/07/30 05:43:41;;;;;;;5.80;2.60;;;16.60;92.60;;;;;;5036801;28;20022;-73
2021/07/30 05:46:07;;;;;;;5.45;3.10;;;16.70;92.40;;;;;;5034481;28;20034;-73
2021/07/30 05:48:32;;;;;;;6.88;2.38;;;16.80;92.20;;;;;;5041391;28;20051;-74
2021/07/30 05:50:58;;;;;;;7.13;2.70;;;16.80;91.80;;;;;;5041552;28;20029;-74
2021/07/30 05:53:23;;;;;;;6.32;2.60;;;16.90;91.60;;;;;;5041646;28;20483;-74
2021/07/30 05:55:49;;;;;;;8.70;2.40;;;16.90;91.90;;;;;;5046813;28;20058;-74
2021/07/30 05:58:15;;;;;;;4.70;2.33;;;16.90;90.90;;;;;;5044703;28;20025;-74
2021/07/30 06:00:40;;;;;;;2.70;2.08;;;17.00;90.70;;;;;;5042513;28;20029;-75
2021/07/30 06:03:06;;;;;;;5.35;2.47;;;17.00;90.90;;;;;;5042334;28;20541;-74
2021/07/30 06:05:31;;;;;;;3.17;2.25;;;17.10;90.30;;;;;;5041453;28;20045;-74
2021/07/30 06:07:57;;;;;;;9.25;2.50;;;17.10;90.80;;;;;;5042814;28;20519;-74
2021/07/30 06:10:24;;;;;;;4.88;2.45;;;17.20;90.60;;;;;;5038213;28;20032;-74
2021/07/30 06:12:49;;;;;;;8.43;2.42;;;17.30;90.00;;;;;;5041629;28;20029;-74
2021/07/30 06:15:22;;;;;;;10.98;2.25;;;17.30;90.00;;;;;;5043816;28;20026;-73
2021/07/30 06:17:47;;;;;;;7.63;2.47;;;17.30;90.10;;;;;;5035913;28;20057;-73
2021/07/30 06:20:13;;;;;;;4.07;2.33;;;17.30;90.10;;;;;;5041522;28;20056;-75
2021/07/30 06:22:39;;;;;;;4.75;2.33;;;17.40;90.20;;;;;;5043067;28;20025;-73
2021/07/30 06:25:05;;;;;;;6.45;2.20;;;17.40;90.00;;;;;;5045311;28;20076;-73
2021/07/30 06:27:31;;;;;;;8.18;2.70;;;17.40;89.70;;;;;;5046436;28;20025;-74
2021/07/30 06:29:57;;;;;;;6.70;2.40;;;17.50;89.70;;;;;;5045079;28;20026;-74
2021/07/30 06:32:23;;;;;;;4.32;2.28;;;17.50;88.50;;;;;;5045684;28;20429;-69
2021/07/30 06:34:48;;;;;;;4.72;2.80;;;17.50;90.00;;;;;;5046868;28;20037;-71
2021/07/30 06:37:14;;;;;;;5.25;2.40;;;17.60;90.70;;;;;;5045550;28;20035;-72
2021/07/30 06:39:40;;;;;;;4.90;2.40;;;17.60;89.60;;;;;;5038232;28;20669;-71
2021/07/30 06:42:05;;;;;;;5.45;2.60;;;17.70;90.10;;;;;;5041855;28;20558;-76
2021/07/30 06:44:31;;;;;;;9.48;2.33;;;17.70;90.30;;;;;;5033163;28;20056;-75
2021/07/30 06:46:56;;;;;;;5.35;2.50;;;17.70;89.70;;;;;;5042381;28;20032;-74
2021/07/30 06:49:22;;;;;;;9.00;2.63;;;17.80;88.40;;;;;;5035853;28;20473;-73
2021/07/30 06:51:47;;;;;;;8.88;2.42;;;17.90;87.20;;;;;;5035727;28;20025;-74
2021/07/30 06:54:13;;;;;;;7.60;2.40;;;17.90;87.80;;;;;;5035377;28;20021;-73
2021/07/30 06:56:38;;;;;;;7.70;2.75;;;17.90;88.50;;;;;;5046199;28;20116;-73
2021/07/30 06:59:04;;;;;;;6.47;2.58;;;17.90;89.20;;;;;;5040533;28;20022;-72
2021/07/30 07:01:29;;;;;;;6.07;2.65;;;18.00;90.00;;;;;;5045991;28;20021;-72
2021/07/30 07:03:55;;;;;;;3.75;2.25;;;18.00;86.30;;;;;;5035669;28;20566;-72
2021/07/30 07:06:20;;;;;;;7.57;2.63;;;18.10;86.70;;;;;;5039748;28;20513;-72
2021/07/30 07:08:46;;;;;;;5.95;2.58;;;18.10;86.10;;;;;;5033604;28;20028;-73
2021/07/30 07:11:12;;;;;;;5.72;2.30;;;18.20;87.40;;;;;;5042678;28;20029;-72
2021/07/30 07:13:37;;;;;;;5.20;2.70;;;18.20;86.00;;;;;;5044204;28;20104;-72
2021/07/30 07:16:03;;;;;;;7.85;2.47;;;18.30;86.20;;;;;;5045102;28;20114;-74
2021/07/30 07:18:32;;;;;;;5.97;2.47;;;18.40;84.80;;;;;;5040231;28;20021;-73
2021/07/30 07:20:58;;;;;;;5.50;2.50;;;18.40;84.80;;;;;;5033973;28;20112;-72
2021/07/30 07:23:24;;;;;;;7.70;2.50;;;18.50;83.70;;;;;;5041513;28;20107;-72
2021/07/30 07:25:49;;;;;;;9.95;2.55;;;18.50;83.20;;;;;;5041834;28;20558;-71
2021/07/30 07:28:15;;;;;;;6.13;2.90;;;18.50;82.80;;;;;;5043051;28;20125;-71
2021/07/30 07:30:40;;;;;;;7.75;2.58;;;18.60;83.30;;;;;;5036638;28;20067;-72
2021/07/30 07:33:06;;;;;;;4.47;2.58;;;18.60;82.90;;;;;;5041933;28;20021;-72
2021/07/30 07:35:31;;;;;;;4.22;2.45;;;18.70;83.70;;;;;;5043376;28;20410;-71
2021/07/30 07:38:02;;;;;;;8.77;2.70;;;18.60;84.50;;;;;;5039460;28;20111;-72
2021/07/30 07:40:27;;;;;;;4.07;2.57;;;18.80;84.20;;;;;;5035227;28;20547;-72
2021/07/30 07:42:53;;;;;;;8.07;2.85;;;18.80;84.10;;;;;;5030520;28;20132;-71
2021/07/30 07:45:19;;;;;;;9.85;2.38;;;18.90;82.10;;;;;;5040494;28;20025;-71
2021/07/30 07:47:44;;;;;;;4.50;2.65;;;19.00;82.00;;;;;;5034912;28;20022;-71
2021/07/30 07:50:09;;;;;;;4.65;2.65;;;19.00;81.60;;;;;;5043893;28;20108;-71
2021/07/30 07:52:44;;;;;;;8.55;2.60;;;19.10;80.00;;;;;;5039703;28;20032;-71
2021/07/30 07:55:10;;;;;;;7.75;2.88;;;19.20;81.00;;;;;;5030712;28;20113;-72
2021/07/30 07:57:38;;;;;;;6.25;2.63;;;19.20;81.30;;;;;;5045229;28;20029;-71
2021/07/30 08:00:04;;;;;;;12.13;2.88;;;19.30;79.10;;;;;;5036036;28;20025;-72
2021/07/30 08:02:33;;;;;;;7.82;2.88;;;19.30;79.70;;;;;;5029480;28;20026;-71
2021/07/30 08:04:58;;;;;;;13.13;2.70;;;19.30;78.50;;;;;;5035868;28;20048;-72
2021/07/30 08:07:24;;;;;;;3.90;2.28;;;19.40;79.70;;;;;;5044999;28;20546;-71
2021/07/30 08:09:51;;;;;;;6.60;2.63;;;19.40;77.90;;;;;;5031801;28;20030;-71
2021/07/30 08:12:17;;;;;;;4.35;2.58;;;19.40;76.50;;;;;;5037986;28;20025;-71
2021/07/30 08:14:42;;;;;;;8.68;2.90;;;19.50;76.10;;;;;;5038990;28;20037;-71
2021/07/30 08:17:08;;;;;;;5.13;2.53;;;19.50;76.80;;;;;;5042770;28;20025;-71
2021/07/30 08:19:34;;;;;;;7.38;2.92;;;19.50;77.00;;;;;;5043895;28;20372;-71
2021/07/30 08:22:01;;;;;;;9.07;2.92;;;19.60;77.30;;;;;;5041348;28;20029;-71
2021/07/30 08:24:30;;;;;;;5.15;3.20;;;19.70;74.50;;;;;;5042647;28;20033;-71
2021/07/30 08:26:55;;;;;;;5.00;2.80;;;19.70;74.90;;;;;;5043542;28;20024;-72
2021/07/30 08:29:21;;;;;;;6.68;2.88;;;19.60;74.40;;;;;;5043451;28;20052;-72
2021/07/30 08:31:46;;;;;;;4.97;2.80;;;19.60;73.90;;;;;;5041036;28;20039;-71
2021/07/30 08:34:13;;;;;;;5.75;2.50;;;19.60;74.10;;;;;;5042054;28;20029;-72
2021/07/30 08:36:38;;;;;;;4.22;2.72;;;19.70;72.90;;;;;;5038970;28;20025;-72
2021/07/30 08:39:04;;;;;;;6.75;2.85;;;19.90;72.40;;;;;;5044544;28;20029;-71
2021/07/30 08:41:30;;;;;;;5.25;2.80;;;19.90;72.70;;;;;;5041116;28;20411;-71
2021/07/30 08:43:56;;;;;;;9.00;2.90;;;20.00;71.80;;;;;;5037010;28;20053;-72
2021/07/30 08:46:25;;;;;;;9.70;3.17;;;20.10;71.00;;;;;;5045165;28;20032;-72
2021/07/30 08:48:51;;;;;;;7.05;2.67;;;20.20;70.50;;;;;;5037540;28;20033;-72
2021/07/30 08:51:18;;;;;;;5.45;3.03;;;20.40;71.70;;;;;;5032081;28;20114;-72
2021/07/30 08:53:46;;;;;;;8.02;3.10;;;20.50;70.00;;;;;;5045272;28;20059;-72
2021/07/30 08:56:12;;;;;;;9.60;2.70;;;20.50;69.90;;;;;;5046413;28;20503;-72
2021/07/30 08:58:37;;;;;;;4.93;2.85;;;20.50;69.20;;;;;;5046902;28;20060;-72
2021/07/30 09:01:03;;;;;;;4.63;2.60;;;20.50;67.80;;;;;;5045591;28;20060;-73
2021/07/30 09:03:43;;;;;;;10.95;2.97;;;20.60;67.20;;;;;;5044488;28;20418;-72
2021/07/30 09:06:20;;;;;;;4.82;2.42;;;20.60;67.00;;;;;;5045799;28;20041;-73
2021/07/30 09:09:03;;;;;;;7.13;2.70;;;20.60;66.60;;;;;;5046119;28;20047;-72
2021/07/30 09:11:37;;;;;;;5.75;2.90;;;20.60;68.60;;;;;;5047143;28;20033;-72
2021/07/30 09:14:10;;;;;;;5.13;2.90;;;20.70;68.40;;;;;;5044497;28;20035;-72
2021/07/30 09:16:53;;;;;;;5.30;2.60;;;20.80;66.70;;;;;;5040870;28;20471;-73
2021/07/30 09:19:19;;;;;;;5.25;2.30;;;21.00;64.60;;;;;;5045625;28;20124;-72
2021/07/30 09:21:45;;;;;;;3.67;2.45;;;21.00;64.60;;;;;;5041086;28;20017;-71
2021/07/30 09:24:13;;;;;;;7.82;3.03;;;21.00;63.10;;;;;;5037649;28;20086;-72
2021/07/30 09:26:47;;;;;;;4.38;3.22;;;21.10;63.20;;;;;;5045742;28;20029;-72
2021/07/30 09:29:15;;;;;;;5.20;2.70;;;21.10;62.40;;;;;;5040367;28;20029;-72
2021/07/30 09:31:43;;;;;;;7.35;2.72;;;21.20;63.30;;;;;;5041919;28;20053;-72
2021/07/30 09:34:16;;;;;;;3.75;2.47;;;21.40;63.90;;;;;;5036884;28;20033;-72
2021/07/30 09:36:43;;;;;;;11.10;2.80;;;21.40;61.00;;;;;;5040345;28;20033;-72
2021/07/30 09:39:09;;;;;;;7.22;3.20;;;21.60;62.60;;;;;;5042581;28;20028;-72
2021/07/30 09:41:34;;;;;;;4.93;3.03;;;21.70;61.10;;;;;;5041140;28;20067;-72
2021/07/30 09:44:07;;;;;;;11.13;3.45;;;21.70;61.20;;;;;;5038313;28;21444;-71
2021/07/30 09:46:33;;;;;;;6.97;2.95;;;21.80;61.40;;;;;;5045075;28;20040;-72
2021/07/30 09:48:59;;;;;;;8.23;2.60;;;21.80;62.10;;;;;;5039865;28;20025;-71
2021/07/30 09:51:25;;;;;;;5.35;2.47;;;21.90;60.90;;;;;;5044906;28;20122;-73
2021/07/30 09:53:51;;;;;;;3.90;2.85;;;21.90;62.30;;;;;;5040572;28;20102;-72
2021/07/30 09:56:21;;;;;;;5.85;2.65;;;22.10;61.30;;;;;;5035511;28;20491;-72
2021/07/30 09:58:47;;;;;;;7.68;2.47;;;22.20;59.50;;;;;;5038745;28;20029;-72
2021/07/30 10:01:17;;;;;;;4.80;2.53;;;22.20;59.20;;;;;;5039730;28;20036;-72
2021/07/30 10:03:44;;;;;;;6.00;2.55;;;22.10;59.80;;;;;;5035242;28;20084;-72
2021/07/30 10:06:13;;;;;;;5.53;2.92;;;22.20;59.50;;;;;;5039193;28;20136;-72
2021/07/30 10:08:42;;;;;;;3.40;2.63;;;22.30;58.80;;;;;;5033531;28;20437;-72
2021/07/30 10:11:10;;;;;;;5.82;2.28;;;22.40;60.20;;;;;;5044815;28;20479;-72
2021/07/30 10:13:46;;;;;;;4.97;2.60;;;22.30;59.00;;;;;;5046377;28;20045;-72
2021/07/30 10:16:13;;;;;;;6.30;2.55;;;22.30;60.10;;;;;;5033205;28;20035;-72
2021/07/30 10:18:40;;;;;;;6.07;2.55;;;22.20;58.70;;;;;;5036446;28;20025;-72
2021/07/30 10:21:07;;;;;;;6.13;2.60;;;22.20;59.40;;;;;;5039839;28;20021;-72
2021/07/30 10:23:38;;;;;;;7.78;2.45;;;22.10;58.90;;;;;;5035548;28;20029;-72
2021/07/30 10:26:04;;;;;;;3.90;2.60;;;22.10;59.70;;;;;;5037832;28;20029;-72
2021/07/30 10:28:32;;;;;;;9.15;2.40;;;22.20;60.40;;;;;;5038340;28;20087;-73
2021/07/30 10:30:59;;;;;;;6.75;2.65;;;22.20;59.90;;;;;;5048675;28;20383;-72
2021/07/30 10:33:31;;;;;;;4.82;2.63;;;22.20;59.30;;;;;;5037366;28;20669;-72
2021/07/30 10:35:58;;;;;;;5.85;2.53;;;22.20;59.40;;;;;;5036883;28;20061;-72
2021/07/30 10:38:24;;;;;;;3.80;2.35;;;22.10;59.00;;;;;;5043127;28;20055;-72
2021/07/30 10:40:55;;;;;;;5.47;2.67;;;22.20;59.80;;;;;;5041598;28;20122;-72
2021/07/30 10:43:22;;;;;;;7.68;2.53;;;22.40;59.50;;;;;;5040878;28;20426;-72
2021/07/30 10:46:09;;;;;;;5.15;2.50;;;22.70;58.50;;;;;;5042230;28;20075;-72
2021/07/30 10:48:39;;;;;;;6.90;2.72;;;22.90;57.90;;;;;;5039269;28;20094;-72
2021/07/30 10:51:21;;;;;;;3.53;1.95;;;23.00;57.30;;;;;;5049424;28;20020;-72
2021/07/30 10:53:48;;;;;;;4.93;2.47;;;23.10;56.70;;;;;;5042426;28;20056;-72
2021/07/30 10:56:16;;;;;;;5.43;2.45;;;23.10;58.00;;;;;;5039999;28;20029;-72
2021/07/30 10:58:45;;;;;;;4.15;2.45;;;23.00;56.40;;;;;;5036892;28;20437;-71
2021/07/30 11:01:15;;;;;;;4.22;2.30;;;22.90;58.40;;;;;;5039853;28;20165;-72
2021/07/30 11:03:53;;;;;;;5.00;2.28;;;23.00;57.90;;;;;;5037245;28;20032;-72
2021/07/30 11:06:28;;;;;;;7.40;2.50;;;22.90;60.00;;;;;;5037267;28;20052;-72
2021/07/30 11:11:57;;;;;;;4.20;2.60;;;23.40;58.80;;;;;;5040330;28;20041;-73
2021/07/30 11:14:38;;;;;;;10.38;2.83;;;23.50;57.20;;;;;;5040117;28;20037;-73
2021/07/30 11:17:05;;;;;;;;;;;23.90;58.20;;;;;;5039553;28;20068;-73
2021/07/30 11:19:33;;;;;;;6.00;2.22;;;23.90;55.80;;;;;;5036901;28;19916;-72
2021/07/30 11:22:03;;;;;;;4.38;2.10;;;23.90;56.70;;;;;;5038696;28;20036;-73
2021/07/30 11:24:35;;;;;;;2.88;1.85;;;23.90;54.30;;;;;;5049009;28;20053;-73
2021/07/30 11:27:01;;;;;;;4.07;2.10;;;24.10;54.50;;;;;;5038620;28;20036;-73
2021/07/30 11:29:27;;;;;;;6.22;2.15;;;24.30;54.70;;;;;;5039012;28;20131;-73
2021/07/30 11:31:56;;;;;;;7.60;1.90;;;24.60;54.30;;;;;;5040081;28;20491;-72
2021/07/30 11:34:35;;;;;;;3.42;1.75;;;24.50;53.80;;;;;;5041286;28;20028;-72
2021/07/30 11:37:11;;;;;;;5.20;1.98;;;24.70;53.60;;;;;;5036329;28;20022;-71
2021/07/30 11:39:39;;;;;;;7.57;2.38;;;24.80;54.40;;;;;;5043307;28;20543;-72
2021/07/30 11:42:07;;;;;;;4.53;1.95;;;25.10;50.90;;;;;;5031204;28;20033;-71
2021/07/30 11:44:48;;;;;;;4.68;2.20;;;25.10;51.50;;;;;;5041287;28;20027;-72
2021/07/30 11:47:15;;;;;;;7.15;1.95;;;25.50;52.20;;;;;;5040735;28;20029;-80
2021/07/30 11:49:41;;;;;;;4.47;2.28;;;26.00;50.20;;;;;;5037681;28;20642;-73
2021/07/30 11:52:10;;;;;;;3.65;1.95;;;26.40;49.80;;;;;;5043637;28;20045;-72
2021/07/30 11:54:36;;;;;;;3.35;2.00;;;26.90;48.00;;;;;;5039648;28;20120;-72
2021/07/30 11:57:03;;;;;;;5.13;1.92;;;26.80;46.90;;;;;;5043254;28;20047;-73
2021/07/30 11:59:48;;;;;;;3.25;1.70;;;27.20;47.20;;;;;;5044998;28;20037;-73
2021/07/30 12:02:15;;;;;;;5.72;1.92;;;27.40;46.90;;;;;;5046567;28;20040;-72
2021/07/30 12:05:05;;;;;;;6.00;2.28;;;27.90;46.80;;;;;;5049241;28;20495;-73
2021/07/30 12:07:36;;;;;;;5.05;2.00;;;28.00;45.40;;;;;;5049525;28;20021;-73
2021/07/30 12:10:04;;;;;;;7.72;2.15;;;28.10;46.00;;;;;;5051710;28;20490;-72
2021/07/30 12:12:33;;;;;;;4.07;2.10;;;28.20;46.80;;;;;;5048144;28;20021;-73
2021/07/30 12:15:00;;;;;;;4.55;1.70;;;28.20;46.10;;;;;;5042976;28;20391;-73
2021/07/30 12:17:30;;;;;;;2.50;1.80;;;28.20;45.40;;;;;;5051750;28;20047;-72
2021/07/30 12:20:06;;;;;;;4.28;2.17;;;27.90;46.40;;;;;;5051875;28;20037;-72
2021/07/30 12:22:33;;;;;;;3.10;1.92;;;27.60;46.00;;;;;;5044138;28;20029;-72
2021/07/30 12:24:59;;;;;;;8.55;2.15;;;27.20;46.90;;;;;;5046897;28;20044;-73
2021/07/30 12:27:24;;;;;;;4.72;2.17;;;27.20;48.10;;;;;;5046886;28;20020;-76
2021/07/30 12:29:50;;;;;;;6.88;2.20;;;27.30;47.60;;;;;;5042077;28;20108;-73
2021/07/30 12:32:25;;;;;;;5.40;2.08;;;27.90;48.40;;;;;;5049233;28;20025;-74
2021/07/30 12:34:59;;;;;;;2.35;1.60;;;28.10;44.90;;;;;;5045170;28;20463;-72
2021/07/30 12:37:26;;;;;;;2.60;1.90;;;27.50;46.40;;;;;;5046256;28;20032;-72
2021/07/30 12:39:54;;;;;;;5.20;2.08;;;27.30;46.60;;;;;;5040546;28;20029;-73
2021/07/30 12:42:30;;;;;;;5.40;2.17;;;27.70;47.40;;;;;;5051533;28;20472;-72
2021/07/30 12:45:00;;;;;;;3.72;2.17;;;28.00;46.60;;;;;;5042599;28;20390;-72
2021/07/30 12:47:25;;;;;;;5.32;2.20;;;28.10;45.30;;;;;;5040618;28;20030;-73
2021/07/30 12:49:52;;;;;;;2.35;1.80;;;28.70;45.80;;;;;;5048910;28;20078;-72
2021/07/30 12:52:18;;;;;;;3.17;2.10;;;29.00;43.80;;;;;;5050916;28;20059;-72
2021/07/30 12:54:44;;;;;;;7.40;2.00;;;28.80;45.10;;;;;;5048567;28;20060;-73